Time,TemperatureF,DewpointF,PressureIn,WindDirection,WindDirectionDegrees,WindSpeedMPH,WindSpeedGustMPH,Humidity,HourlyPrecipIn,Conditions,Clouds,dailyrainin,SoftwareType,DateUTC
2013-06-23 08:00:00,65.0,58.0,30.21,SW,214,0.0,4.0,78,0.00,,,-99.99,,2013-06-23 12:00:00,
2013-06-23 08:34:00,65.0,58.0,30.21,SW,214,0.0,4.0,78,0.00,,,-99.99,,2013-06-23 12:34:00,
2013-06-23 08:43:00,65.0,58.0,30.21,SW,214,0.0,4.0,78,0.00,,,-99.99,,2013-06-23 12:43:00,
2013-06-23 08:53:00,65.0,58.0,30.21,SW,214,0.0,4.0,78,0.00,,,-99.99,,2013-06-23 12:53:00,
2013-06-23 09:00:00,72.0,62.0,30.18,SSE,152,2.0,6.0,70,0.00,,,-99.99,,2013-06-23 13:00:00,
2013-06-23 09:43:00,72.0,62.0,30.18,SSE,152,2.0,6.0,70,0.00,,,-99.99,,2013-06-23 13:43:00,
2013-06-23 09:54:00,72.0,62.0,30.18,SSE,152,2.0,6.0,70,0.00,,,-99.99,,2013-06-23 13:54:00,
2013-06-23 10:00:00,76.0,63.0,30.18,SW,219,3.0,7.0,65,0.00,,,-99.99,,2013-06-23 14:00:00,
2013-06-23 10:34:00,76.0,63.0,30.18,SW,219,3.0,7.0,65,0.00,,,-99.99,,2013-06-23 14:34:00,
2013-06-23 10:44:00,76.0,63.0,30.18,SW,219,3.0,7.0,65,0.00,,,-99.99,,2013-06-23 14:44:00,
2013-06-23 10:52:00,76.0,63.0,30.18,SW,219,3.0,7.0,65,0.00,,,-99.99,,2013-06-23 14:52:00,
2013-06-23 11:00:00,78.0,64.0,30.15,SSW,205,7.0,13.0,62,0.00,,,-99.99,,2013-06-23 15:00:00,
2013-06-23 11:35:00,78.0,64.0,30.15,SSW,205,7.0,13.0,62,0.00,,,-99.99,,2013-06-23 15:35:00,
2013-06-23 11:43:00,78.0,64.0,30.15,SSW,205,7.0,13.0,62,0.00,,,-99.99,,2013-06-23 15:43:00,
2013-06-23 11:53:00,78.0,64.0,30.15,SSW,205,7.0,13.0,62,0.00,,,-99.99,,2013-06-23 15:53:00,
2013-06-23 12:00:00,80.0,66.0,30.15,SE,144,5.0,10.0,61,0.00,,,-99.99,,2013-06-23 16:00:00,
2013-06-23 12:36:00,80.0,66.0,30.15,SE,144,5.0,10.0,61,0.00,,,-99.99,,2013-06-23 16:36:00,
2013-06-23 12:43:00,80.0,66.0,30.15,SE,144,5.0,10.0,61,0.00,,,-99.99,,2013-06-23 16:43:00,
2013-06-23 12:53:00,80.0,66.0,30.15,SE,144,5.0,10.0,61,0.00,,,-99.99,,2013-06-23 16:53:00,
2013-06-23 13:00:00,82.0,63.0,30.12,WSW,253,2.0,12.0,53,0.00,,,-99.99,,2013-06-23 17:00:00,
2013-06-23 13:34:00,82.0,63.0,30.12,WSW,253,2.0,12.0,53,0.00,,,-99.99,,2013-06-23 17:34:00,
2013-06-23 13:43:00,82.0,63.0,30.12,WSW,253,2.0,12.0,53,0.00,,,-99.99,,2013-06-23 17:43:00,
2013-06-23 13:53:00,82.0,63.0,30.12,WSW,253,2.0,12.0,53,0.00,,,-99.99,,2013-06-23 17:53:00,
2013-06-23 14:00:00,83.0,64.0,30.09,WSW,240,3.0,15.0,54,0.00,,,-99.99,,2013-06-23 18:00:00,
2013-06-23 14:34:00,83.0,64.0,30.09,WSW,240,3.0,15.0,54,0.00,,,-99.99,,2013-06-23 18:34:00,
2013-06-23 14:43:00,83.0,64.0,30.09,WSW,240,3.0,15.0,54,0.00,,,-99.99,,2013-06-23 18:43:00,
2013-06-23 14:53:00,83.0,64.0,30.09,WSW,240,3.0,15.0,54,0.00,,,-99.99,,2013-06-23 18:53:00,
2013-06-23 15:00:00,85.0,66.0,30.06,SSE,158,0.0,14.0,54,0.00,,,-99.99,,2013-06-23 19:00:00,
2013-06-23 15:32:00,85.0,66.0,30.06,SSE,158,0.0,14.0,54,0.00,,,-99.99,,2013-06-23 19:32:00,
2013-06-23 15:43:00,85.0,66.0,30.06,SSE,158,0.0,14.0,54,0.00,,,-99.99,,2013-06-23 19:43:00,
2013-06-23 15:53:00,85.0,66.0,30.06,SSE,158,0.0,14.0,54,0.00,,,-99.99,,2013-06-23 19:53:00,
2013-06-23 16:00:00,82.0,68.0,30.06,SSE,162,0.0,16.0,61,0.00,,,-99.99,,2013-06-23 20:00:00,
2013-06-23 16:34:00,82.0,68.0,30.06,SSE,162,0.0,16.0,61,0.00,,,-99.99,,2013-06-23 20:34:00,
2013-06-23 16:42:00,82.0,68.0,30.06,SSE,162,0.0,16.0,61,0.00,,,-99.99,,2013-06-23 20:42:00,
2013-06-23 16:53:00,82.0,68.0,30.06,SSE,162,0.0,16.0,61,0.00,,,-99.99,,2013-06-23 20:53:00,
2013-06-23 17:00:00,84.0,66.0,30.03,SSE,152,3.0,14.0,56,0.00,,,-99.99,,2013-06-23 21:00:00,
2013-06-23 17:34:00,84.0,66.0,30.03,SSE,152,3.0,14.0,56,0.00,,,-99.99,,2013-06-23 21:34:00,
2013-06-23 17:44:00,84.0,66.0,30.03,SSE,152,3.0,14.0,56,0.00,,,-99.99,,2013-06-23 21:44:00,
2013-06-23 17:52:00,84.0,66.0,30.03,SSE,152,3.0,14.0,56,0.00,,,-99.99,,2013-06-23 21:52:00,
2013-06-23 18:00:00,81.0,67.0,30.06,SW,216,2.0,11.0,63,0.00,,,-99.99,,2013-06-23 22:00:00,
2013-06-23 18:33:00,81.0,67.0,30.06,SW,216,2.0,11.0,63,0.00,,,-99.99,,2013-06-23 22:33:00,
2013-06-23 18:43:00,81.0,67.0,30.06,SW,216,2.0,11.0,63,0.00,,,-99.99,,2013-06-23 22:43:00,
2013-06-23 18:53:00,81.0,67.0,30.06,SW,216,2.0,11.0,63,0.00,,,-99.99,,2013-06-23 22:53:00,
2013-06-23 19:00:00,80.0,68.0,30.06,NW,308,0.0,13.0,67,0.00,,,-99.99,,2013-06-23 23:00:00,
2013-06-23 19:33:00,80.0,68.0,30.06,NW,308,0.0,13.0,67,0.00,,,-99.99,,2013-06-23 23:33:00,
2013-06-23 19:44:00,80.0,68.0,30.06,NW,308,0.0,13.0,67,0.00,,,-99.99,,2013-06-23 23:44:00,
2013-06-23 19:52:00,80.0,68.0,30.06,NW,308,0.0,13.0,67,0.00,,,-99.99,,2013-06-23 23:52:00,
2013-06-23 20:00:00,76.0,67.0,30.06,SSE,154,0.0,10.0,74,0.00,,,-99.99,,2013-06-24 00:00:00,
2013-06-23 20:33:00,76.0,67.0,30.06,SSE,154,0.0,10.0,74,0.00,,,-99.99,,2013-06-24 00:33:00,
2013-06-23 20:43:00,76.0,67.0,30.06,SSE,154,0.0,10.0,74,0.00,,,-99.99,,2013-06-24 00:43:00,
2013-06-23 20:52:00,76.0,67.0,30.06,SSE,154,0.0,10.0,74,0.00,,,-99.99,,2013-06-24 00:52:00,